CW4778 Auckland NZ current weather conditions

sailwx.info

Wind from 098

Air temperature 15.0° C
Dewpoint 14.0° C

Last reported at 2015-Apr-21 10:48 UTC.
Time now 2015-Apr-21 11:42 UTC

Location: S 36°52' E 174°44'.
View on Google Maps.

See reports from other nearby stations

  
Tides and Currents Weather Stations Pressure Air Temp Water Temp Dewpoint Dewpoint Depression Visibility Wind Speed Wind Dir Waves Ship Positions
date/time (UTC)wind fromknots sea level pressurealtimeterstation pressurevisibilityair tempwater tempwave heightnotes
2015-Apr-21 10:48 098 15.0
2015-Apr-21 10:38 099 15.6
2015-Apr-21 10:18 097 15.0
2015-Apr-21 10:08 100 15.0
2015-Apr-21 09:58 101 0 gusting 1 15.6
2015-Apr-21 09:48 005 15.6
2015-Apr-21 09:38 100 15.6
2015-Apr-21 09:28 100 15.6
2015-Apr-21 09:18 098 15.6
2015-Apr-21 09:08 101 15.6
2015-Apr-21 08:58 101 15.6
2015-Apr-21 08:48 100 15.6
2015-Apr-21 08:28 096 15.6
2015-Apr-21 08:18 098 15.6
2015-Apr-21 08:08 100 15.6
2015-Apr-21 07:38 103 15.6
2015-Apr-21 07:28 100 15.6
2015-Apr-21 07:18 101 15.6
2015-Apr-21 07:08 073 16.1
2015-Apr-21 06:58 072 16.1
2015-Apr-21 06:48 073 16.1
2015-Apr-21 06:38 072 16.7
2015-Apr-21 06:28 071 16.7
2015-Apr-21 06:18 072 16.7
2015-Apr-21 06:08 073 17.2
2015-Apr-21 05:58 071 17.8
2015-Apr-21 05:38 031 1 gusting 6 18.3
2015-Apr-21 05:28 069 1 gusting 6 18.3
2015-Apr-21 05:08 032 3 gusting 6 18.9
2015-Apr-21 04:38 059 2 gusting 6 19.4
2015-Apr-21 04:28 057 4 gusting 6 19.4
2015-Apr-21 04:18 005 1 gusting 6 19.4
2015-Apr-21 04:08 036 1 gusting 6 20.0
2015-Apr-21 03:58 334 1 gusting 6 20.6
2015-Apr-21 03:48 047 2 gusting 7 20.6
2015-Apr-21 03:38 340 2 gusting 7 20.0
2015-Apr-21 03:18 351 4 gusting 8 20.6
2015-Apr-21 03:08 051 5 gusting 11 20.6
2015-Apr-21 02:58 050 4 gusting 8 20.6
2015-Apr-21 02:48 047 5 gusting 10 21.1
2015-Apr-21 02:38 021 3 gusting 7 21.1
2015-Apr-21 02:28 058 1 gusting 6 21.1
2015-Apr-21 02:18 062 4 gusting 7 21.1
2015-Apr-21 02:08 056 4 gusting 7 21.1
2015-Apr-21 01:58 033 4 gusting 7 20.6
2015-Apr-21 01:48 035 4 gusting 8 21.1
2015-Apr-21 01:38 012 6 gusting 11 21.7
2015-Apr-21 01:28 031 4 gusting 10 21.7
2015-Apr-21 01:18 063 4 gusting 7 21.1
2015-Apr-21 01:08 058 6 gusting 10 21.1
2015-Apr-21 00:58 061 7 gusting 10 22.2
2015-Apr-21 00:48 002 4 gusting 7 22.2
2015-Apr-21 00:38 073 1 gusting 7 22.2
2015-Apr-21 00:28 029 2 gusting 7 22.2
2015-Apr-21 00:18 055 5 gusting 7 21.7
2015-Apr-21 00:08 061 3 gusting 7 21.1
2015-Apr-20 23:58 040 3 gusting 6 21.7
2015-Apr-20 23:48 046 4 gusting 8 22.2
2015-Apr-20 23:28 079 4 gusting 8 21.1
2015-Apr-20 23:18 044 4 gusting 8 21.7
2015-Apr-20 22:58 020 4 gusting 7 21.1
2015-Apr-20 22:48 063 4 gusting 7 21.1
2015-Apr-20 22:38 024 4 gusting 7 21.7
2015-Apr-20 22:28 354 4 gusting 7 21.1
2015-Apr-20 22:08 356 5 gusting 7 21.1
2015-Apr-20 21:58 100 3 gusting 6 20.6
2015-Apr-20 21:48 062 2 gusting 7 20.0
2015-Apr-20 21:38 115 1 gusting 5 20.6
2015-Apr-20 21:28 074 2 gusting 5 20.0
2015-Apr-20 21:08 099 1 gusting 6 19.4
2015-Apr-20 20:58 109 2 gusting 7 19.4
2015-Apr-20 20:48 111 4 gusting 7 18.9
2015-Apr-20 20:38 103 2 gusting 7 17.2
2015-Apr-20 20:18 213 15.6
2015-Apr-20 20:08 213 15.6
2015-Apr-20 19:58 287 15.6
2015-Apr-20 19:38 213 15.0
2015-Apr-20 19:28 111 15.0
2015-Apr-20 19:08 109 14.4
2015-Apr-20 18:58 110 14.4
2015-Apr-20 18:48 109 1 gusting 4 14.4
2015-Apr-20 18:28 109 13.9
2015-Apr-20 18:08 109 13.3
2015-Apr-20 17:58 112 13.9
2015-Apr-20 17:48 109 13.9
2015-Apr-20 17:38 111 13.9
2015-Apr-20 17:28 111 0 gusting 4 13.9
2015-Apr-20 17:08 111 1 gusting 4 13.9
2015-Apr-20 16:48 110 13.3
2015-Apr-20 16:38 111 13.3
2015-Apr-20 16:28 111 13.9
2015-Apr-20 16:08 112 13.9
2015-Apr-20 15:58 110 14.4
2015-Apr-20 15:48 112 14.4
2015-Apr-20 15:38 111 13.9
2015-Apr-20 15:28 112 14.4
2015-Apr-20 15:18 112 14.4
2015-Apr-20 15:08 111 0 gusting 2 14.4
2015-Apr-20 14:48 111 0 gusting 1 14.4
2015-Apr-20 14:38 111 14.4
2015-Apr-20 14:28 111 14.4
2015-Apr-20 14:18 111 15.0
2015-Apr-20 13:58 110 15.0
2015-Apr-20 13:48 110 15.0
2015-Apr-20 13:38 111 0 gusting 4 15.6
2015-Apr-20 13:28 107 1 gusting 5 15.6
2015-Apr-20 13:18 109 1 gusting 4 15.0
2015-Apr-20 13:08 108 0 gusting 2 15.6
2015-Apr-20 12:58 109 15.6
2015-Apr-20 12:38 109 15.6
2015-Apr-20 12:28 109 15.6
2015-Apr-20 12:18 103 1 gusting 4 15.6
2015-Apr-20 12:08 102 16.1
2015-Apr-20 11:58 102 0 gusting 2 16.1
2015-Apr-20 11:48 101 0 gusting 5 16.7
2015-Apr-20 11:38 098 1 gusting 5 16.7
2015-Apr-20 11:28 056 0 gusting 5 16.7
2015-Apr-20 11:18 051 3 gusting 6 17.2
2015-Apr-20 11:08 054 0 gusting 6 17.2
2015-Apr-20 10:48 057 0 gusting 5 16.7
2015-Apr-20 10:38 062 0 gusting 5 16.7
2015-Apr-20 10:18 048 1 gusting 6 16.7
2015-Apr-20 10:08 057 0 gusting 5 16.1
2015-Apr-20 09:58 045 16.1
2015-Apr-20 09:38 044 16.7
2015-Apr-20 09:28 040 16.7
2015-Apr-20 09:18 045 3 gusting 5 17.2
2015-Apr-20 09:08 056 0 gusting 2 17.2
2015-Apr-20 08:58 057 1 gusting 4 17.2
2015-Apr-20 08:38 058 2 gusting 7 17.8
2015-Apr-20 08:28 063 1 gusting 5 17.8
2015-Apr-20 08:18 059 4 gusting 7 17.8
2015-Apr-20 08:08 049 1 gusting 4 17.2
2015-Apr-20 07:58 059 0 gusting 4 17.2
2015-Apr-20 07:48 063 2 gusting 6 17.2
2015-Apr-20 07:38 062 0 gusting 2 17.2
2015-Apr-20 07:18 064 1 gusting 6 17.2
2015-Apr-20 07:08 061 0 gusting 4 17.2
2015-Apr-20 06:58 059 0 gusting 5 17.8
2015-Apr-20 06:48 055 1 gusting 6 17.8
2015-Apr-20 06:38 053 3 gusting 7 17.8
2015-Apr-20 06:28 046 2 gusting 6 17.8
2015-Apr-20 06:18 038 2 gusting 6 17.8
2015-Apr-20 06:08 004 4 gusting 7 17.8
2015-Apr-20 05:58 052 1 gusting 7 18.3
2015-Apr-20 05:48 046 4 gusting 6 18.3
2015-Apr-20 05:38 070 2 gusting 7 18.3
2015-Apr-20 05:28 050 4 gusting 8 18.9
2015-Apr-20 05:18 050 4 gusting 7 18.9
2015-Apr-20 05:08 043 4 gusting 8 18.9
2015-Apr-20 04:58 028 5 gusting 8 19.4
2015-Apr-20 04:38 019 4 gusting 10 19.4
2015-Apr-20 04:18 032 7 gusting 10 19.4
2015-Apr-20 04:08 068 4 gusting 8 20.0
2015-Apr-20 03:58 052 6 gusting 8 20.0
2015-Apr-20 03:48 027 5 gusting 11 20.0
2015-Apr-20 03:38 057 6 gusting 10 20.6
2015-Apr-20 03:28 043 6 gusting 12 20.6
2015-Apr-20 03:18 047 5 gusting 8 20.6
2015-Apr-20 03:08 062 5 gusting 11 20.6
2015-Apr-20 02:48 019 6 gusting 10 21.1
2015-Apr-20 02:38 010 6 gusting 11 20.6
2015-Apr-20 02:28 018 6 gusting 13 21.1
2015-Apr-20 02:18 025 4 gusting 10 21.7
2015-Apr-20 02:08 053 5 gusting 12 21.7
2015-Apr-20 01:48 027 6 gusting 10 21.7
2015-Apr-20 01:38 052 6 gusting 11 21.7
2015-Apr-20 01:28 335 7 gusting 13 21.1
2015-Apr-20 01:18 077 6 gusting 11 22.2
2015-Apr-20 01:08 001 6 gusting 12 21.7
2015-Apr-20 00:58 029 5 gusting 12 21.7
2015-Apr-20 00:48 049 6 gusting 12 22.2
2015-Apr-20 00:38 061 6 gusting 10 22.2
2015-Apr-20 00:28 035 5 gusting 12 21.7
2015-Apr-20 00:18 015 6 gusting 12 22.2
2015-Apr-20 00:08 039 6 gusting 11 21.7
2015-Apr-19 23:58 026 6 gusting 10 21.7
2015-Apr-19 23:48 056 5 gusting 10 21.7
2015-Apr-19 23:28 036 3 gusting 7 22.8
2015-Apr-19 23:18 073 2 gusting 7 21.1
2015-Apr-19 22:58 067 5 gusting 7 21.1
2015-Apr-19 22:38 049 4 gusting 7 21.7
2015-Apr-19 22:28 045 2 gusting 8 21.7
2015-Apr-19 22:18 064 6 gusting 11 21.1
2015-Apr-19 22:08 072 5 gusting 7 20.6
2015-Apr-19 21:58 083 4 gusting 8 20.6
2015-Apr-19 21:48 063 2 gusting 7 20.0
2015-Apr-19 21:38 069 4 gusting 7 20.6
2015-Apr-19 21:28 066 3 gusting 7 20.0
2015-Apr-19 21:18 055 4 gusting 7 18.3
2015-Apr-19 20:58 243 17.2
2015-Apr-19 20:48 243 1 gusting 2 16.1
2015-Apr-19 20:38 244 3 gusting 6 15.0
2015-Apr-19 20:28 142 1 gusting 4 15.0
2015-Apr-19 20:18 108 3 gusting 6 15.0
2015-Apr-19 20:08 165 2 gusting 6 14.4
2015-Apr-19 19:58 173 2 gusting 5 14.4
2015-Apr-19 19:48 176 1 gusting 6 14.4
2015-Apr-19 19:28 198 4 gusting 6 14.4
2015-Apr-19 19:18 202 1 gusting 5 14.4
2015-Apr-19 19:08 200 2 gusting 6 14.4
2015-Apr-19 18:58 203 4 gusting 6 15.0
2015-Apr-19 18:38 201 1 gusting 4 15.0
2015-Apr-19 18:28 201 1 gusting 4 15.0
2015-Apr-19 18:18 168 0 gusting 4 15.0
2015-Apr-19 18:08 146 1 gusting 4 15.6
2015-Apr-19 17:58 118 15.6
2015-Apr-19 17:48 118 2 gusting 7 15.6
2015-Apr-19 17:38 126 4 gusting 7 15.6
2015-Apr-19 17:28 119 5 gusting 7 15.6
2015-Apr-19 17:18 126 1 gusting 6 15.6
2015-Apr-19 17:08 125 3 gusting 7 15.6
2015-Apr-19 16:48 111 6 gusting 8 15.6
2015-Apr-19 16:38 110 3 gusting 7 15.6
2015-Apr-19 16:28 106 4 gusting 7 15.6
2015-Apr-19 16:08 111 4 gusting 7 15.0
2015-Apr-19 15:58 122 4 gusting 7 15.0
2015-Apr-19 15:48 119 4 gusting 7 15.0
2015-Apr-19 15:38 123 2 gusting 5 15.0
2015-Apr-19 15:28 118 2 gusting 4 15.0
2015-Apr-19 15:08 118 3 gusting 7 15.6
2015-Apr-19 14:58 101 5 gusting 7 15.6
2015-Apr-19 14:38 107 3 gusting 7 15.6
2015-Apr-19 14:28 106 4 gusting 7 15.6
2015-Apr-19 14:18 109 5 gusting 7 15.6
2015-Apr-19 14:08 111 4 gusting 6 15.6
2015-Apr-19 13:48 132 3 gusting 6 15.6
2015-Apr-19 13:38 133 1 gusting 6 15.6
2015-Apr-19 13:28 134 2 gusting 5 15.6
2015-Apr-19 13:18 127 3 gusting 5 15.0
2015-Apr-19 13:08 119 2 gusting 5 15.0
2015-Apr-19 12:58 114 2 gusting 6 15.6
2015-Apr-19 12:48 115 2 gusting 5 15.6
2015-Apr-19 12:38 114 1 gusting 4 15.0
2015-Apr-19 12:28 114 4 gusting 7 15.6
2015-Apr-19 12:18 129 2 gusting 4 15.0
2015-Apr-19 12:08 129 2 gusting 5 15.0
2015-Apr-19 11:58 128 2 gusting 5 15.0
2015-Apr-19 11:48 130 1 gusting 4 15.0
2015-Apr-19 11:38 129 1 gusting 2 15.0
2015-Apr-19 11:18 129 1 gusting 4 15.0